Terminal Aerodrome Forecast
Issued by NWS

Home | Current Version | Previous Version | Graphics & Text | Print | Product List | Glossary Off
Versions: 1 2 3 4 5 6 7 8 9 10 11 12 13 14 15 16 17 18 19 20 21 22

000
FTUS41 KCLE 281000 AAB
TAFFDY
TAF AMD
KFDY 281007Z 2810/2906 28008KT P6SM BKN013
     FM281400 34014KT P6SM BKN025
     FM281800 34014G22KT P6SM BKN035
     FM290100 31006KT P6SM SCT040 BKN100=

USA.gov is the U.S. government's official web portal to all federal, state and local government web resources and services.